sensor_id;sensor_type;location;lat;lon;timestamp;temperature;humidity
59146;DHT22;44928;53.074;6.646;2022-10-18T14:55:39;15.40;99.90
59146;DHT22;44928;53.074;6.646;2022-10-18T14:58:35;15.40;99.90
59146;DHT22;44928;53.074;6.646;2022-10-18T15:01:03;15.40;99.90
59146;DHT22;44928;53.074;6.646;2022-10-18T15:03:34;15.40;99.90
59146;DHT22;44928;53.074;6.646;2022-10-18T15:06:03;15.40;99.90
59146;DHT22;44928;53.074;6.646;2022-10-18T15:08:35;15.40;99.90
59146;DHT22;44928;53.074;6.646;2022-10-18T15:11:02;15.40;99.90
59146;DHT22;44928;53.074;6.646;2022-10-18T15:13:30;15.50;99.90
59146;DHT22;44928;53.074;6.646;2022-10-18T15:15:56;15.50;99.90
59146;DHT22;44928;53.074;6.646;2022-10-18T15:18:24;15.50;99.90
59146;DHT22;44928;53.074;6.646;2022-10-18T15:21:29;15.50;99.90
59146;DHT22;44928;53.074;6.646;2022-10-18T15:24:28;15.40;99.90
59146;DHT22;44928;53.074;6.646;2022-10-18T15:26:59;15.40;99.90
59146;DHT22;44928;53.074;6.646;2022-10-18T15:29:25;15.30;99.90
59146;DHT22;44928;53.074;6.646;2022-10-18T15:31:52;15.20;99.90
59146;DHT22;44928;53.074;6.646;2022-10-18T15:34:24;15.10;99.90
59146;DHT22;44928;53.074;6.646;2022-10-18T15:36:53;15.10;99.90
59146;DHT22;44928;53.074;6.646;2022-10-18T15:39:21;15.00;99.90
59146;DHT22;44928;53.074;6.646;2022-10-18T15:41:59;14.90;99.90
59146;DHT22;44928;53.074;6.646;2022-10-18T15:47:14;14.80;99.90
59146;DHT22;44928;53.074;6.646;2022-10-18T15:49:53;14.80;99.90
59146;DHT22;44928;53.074;6.646;2022-10-18T15:54:47;14.70;99.90
59146;DHT22;44928;53.074;6.646;2022-10-18T15:57:13;14.70;99.90
59146;DHT22;44928;53.074;6.646;2022-10-18T15:59:51;14.70;99.90
59146;DHT22;44928;53.074;6.646;2022-10-18T16:02:18;14.70;99.90
59146;DHT22;44928;53.074;6.646;2022-10-18T16:04:44;14.70;99.90
59146;DHT22;44928;53.074;6.646;2022-10-18T16:07:11;14.60;99.90
59146;DHT22;44928;53.074;6.646;2022-10-18T16:09:36;14.60;99.90
59146;DHT22;44928;53.074;6.646;2022-10-18T16:12:03;14.60;99.90
59146;DHT22;44928;53.074;6.646;2022-10-18T16:14:29;14.60;99.90
59146;DHT22;44928;53.074;6.646;2022-10-18T16:16:59;14.50;99.90
59146;DHT22;44928;53.074;6.646;2022-10-18T16:19:25;14.50;99.90
59146;DHT22;44928;53.074;6.646;2022-10-18T16:21:52;14.50;99.90
59146;DHT22;44928;53.074;6.646;2022-10-18T16:24:19;14.40;99.90
59146;DHT22;44928;53.074;6.646;2022-10-18T16:26:46;14.40;99.90
59146;DHT22;44928;53.074;6.646;2022-10-18T16:29:17;14.40;99.90
59146;DHT22;44928;53.074;6.646;2022-10-18T16:31:46;14.30;99.90
59146;DHT22;44928;53.074;6.646;2022-10-18T16:34:12;14.30;99.90
59146;DHT22;44928;53.074;6.646;2022-10-18T16:36:40;14.30;99.90
59146;DHT22;44928;53.074;6.646;2022-10-18T16:39:11;14.20;99.90
59146;DHT22;44928;53.074;6.646;2022-10-18T16:41:38;14.20;99.90
59146;DHT22;44928;53.074;6.646;2022-10-18T16:44:04;14.20;99.90
59146;DHT22;44928;53.074;6.646;2022-10-18T16:46:32;14.10;99.90
59146;DHT22;44928;53.074;6.646;2022-10-18T16:48:59;14.10;99.90
59146;DHT22;44928;53.074;6.646;2022-10-18T16:51:25;14.00;99.90
59146;DHT22;44928;53.074;6.646;2022-10-18T16:53:52;14.00;99.90
59146;DHT22;44928;53.074;6.646;2022-10-18T16:56:27;14.00;99.90
59146;DHT22;44928;53.074;6.646;2022-10-18T16:58:55;14.00;99.90
59146;DHT22;44928;53.074;6.646;2022-10-18T17:01:22;14.00;99.90
59146;DHT22;44928;53.074;6.646;2022-10-18T17:03:49;14.00;99.90
59146;DHT22;44928;53.074;6.646;2022-10-18T17:06:26;13.90;99.90
59146;DHT22;44928;53.074;6.646;2022-10-18T17:08:53;13.90;99.90
59146;DHT22;44928;53.074;6.646;2022-10-18T17:11:20;13.90;99.90
59146;DHT22;44928;53.074;6.646;2022-10-18T17:13:46;13.80;99.90
59146;DHT22;44928;53.074;6.646;2022-10-18T17:16:32;13.80;99.90
59146;DHT22;44928;53.074;6.646;2022-10-18T17:19:00;13.80;99.90
59146;DHT22;44928;53.074;6.646;2022-10-18T17:21:27;13.80;99.90
59146;DHT22;44928;53.074;6.646;2022-10-18T17:23:53;13.80;99.90
59146;DHT22;44928;53.074;6.646;2022-10-18T17:26:22;13.80;99.90
59146;DHT22;44928;53.074;6.646;2022-10-18T17:28:59;13.70;99.90
59146;DHT22;44928;53.074;6.646;2022-10-18T17:31:27;13.70;99.90
59146;DHT22;44928;53.074;6.646;2022-10-18T17:33:53;13.70;99.90
59146;DHT22;44928;53.074;6.646;2022-10-18T17:36:20;13.70;99.90
59146;DHT22;44928;53.074;6.646;2022-10-18T17:38:49;13.60;99.90
59146;DHT22;44928;53.074;6.646;2022-10-18T17:41:15;13.60;99.90
59146;DHT22;44928;53.074;6.646;2022-10-18T17:43:41;13.60;99.90
59146;DHT22;44928;53.074;6.646;2022-10-18T17:46:07;13.60;99.90
59146;DHT22;44928;53.074;6.646;2022-10-18T17:48:32;13.60;99.90
59146;DHT22;44928;53.074;6.646;2022-10-18T17:50:58;13.60;99.90
59146;DHT22;44928;53.074;6.646;2022-10-18T17:53:24;13.60;99.90
59146;DHT22;44928;53.074;6.646;2022-10-18T17:56:01;13.60;99.90
59146;DHT22;44928;53.074;6.646;2022-10-18T17:58:27;13.50;99.90
59146;DHT22;44928;53.074;6.646;2022-10-18T18:00:52;13.50;99.90
59146;DHT22;44928;53.074;6.646;2022-10-18T18:03:18;13.50;99.90
59146;DHT22;44928;53.074;6.646;2022-10-18T18:05:44;13.50;99.90
59146;DHT22;44928;53.074;6.646;2022-10-18T18:08:12;13.50;99.90
59146;DHT22;44928;53.074;6.646;2022-10-18T18:10:38;13.50;99.90
59146;DHT22;44928;53.074;6.646;2022-10-18T18:13:04;13.50;99.90
59146;DHT22;44928;53.074;6.646;2022-10-18T18:15:30;13.40;99.90
59146;DHT22;44928;53.074;6.646;2022-10-18T18:17:56;13.40;99.90
59146;DHT22;44928;53.074;6.646;2022-10-18T18:20:22;13.40;99.90
59146;DHT22;44928;53.074;6.646;2022-10-18T18:22:50;13.40;99.90
59146;DHT22;44928;53.074;6.646;2022-10-18T18:25:16;13.40;99.90
59146;DHT22;44928;53.074;6.646;2022-10-18T18:27:42;13.40;99.90
59146;DHT22;44928;53.074;6.646;2022-10-18T18:30:08;13.40;99.90
59146;DHT22;44928;53.074;6.646;2022-10-18T18:32:34;13.40;99.90
59146;DHT22;44928;53.074;6.646;2022-10-18T18:35:00;13.30;99.90
59146;DHT22;44928;53.074;6.646;2022-10-18T18:37:26;13.30;99.90
59146;DHT22;44928;53.074;6.646;2022-10-18T18:39:52;13.30;99.90
59146;DHT22;44928;53.074;6.646;2022-10-18T18:42:18;13.40;99.90
59146;DHT22;44928;53.074;6.646;2022-10-18T18:44:44;13.30;99.90
59146;DHT22;44928;53.074;6.646;2022-10-18T18:47:14;13.30;99.90
59146;DHT22;44928;53.074;6.646;2022-10-18T18:49:40;13.30;99.90
59146;DHT22;44928;53.074;6.646;2022-10-18T18:52:06;13.30;99.90
59146;DHT22;44928;53.074;6.646;2022-10-18T18:54:32;13.30;99.90
59146;DHT22;44928;53.074;6.646;2022-10-18T18:56:58;13.30;99.90
59146;DHT22;44928;53.074;6.646;2022-10-18T18:59:29;13.30;99.90
59146;DHT22;44928;53.074;6.646;2022-10-18T19:01:56;13.30;99.90
59146;DHT22;44928;53.074;6.646;2022-10-18T19:04:22;13.20;99.90
59146;DHT22;44928;53.074;6.646;2022-10-18T19:06:48;13.20;99.90
59146;DHT22;44928;53.074;6.646;2022-10-18T19:09:15;13.20;99.90
59146;DHT22;44928;53.074;6.646;2022-10-18T19:11:48;13.20;99.90
59146;DHT22;44928;53.074;6.646;2022-10-18T19:14:14;13.20;99.90
59146;DHT22;44928;53.074;6.646;2022-10-18T19:16:51;13.20;99.90
59146;DHT22;44928;53.074;6.646;2022-10-18T19:19:20;13.20;99.90
59146;DHT22;44928;53.074;6.646;2022-10-18T19:21:48;13.20;99.90
59146;DHT22;44928;53.074;6.646;2022-10-18T19:24:16;13.20;99.90
59146;DHT22;44928;53.074;6.646;2022-10-18T19:26:46;13.20;99.90
59146;DHT22;44928;53.074;6.646;2022-10-18T19:29:14;13.20;99.90
59146;DHT22;44928;53.074;6.646;2022-10-18T19:31:41;13.20;99.90
59146;DHT22;44928;53.074;6.646;2022-10-18T19:34:09;13.10;99.90
59146;DHT22;44928;53.074;6.646;2022-10-18T19:36:36;13.10;99.90
59146;DHT22;44928;53.074;6.646;2022-10-18T19:39:03;13.10;99.90
59146;DHT22;44928;53.074;6.646;2022-10-18T19:41:29;13.10;99.90
59146;DHT22;44928;53.074;6.646;2022-10-18T19:43:56;13.10;99.90
59146;DHT22;44928;53.074;6.646;2022-10-18T19:46:22;13.10;99.90
59146;DHT22;44928;53.074;6.646;2022-10-18T19:48:48;13.00;99.90
59146;DHT22;44928;53.074;6.646;2022-10-18T19:51:14;13.00;99.90
59146;DHT22;44928;53.074;6.646;2022-10-18T19:53:40;13.00;99.90
59146;DHT22;44928;53.074;6.646;2022-10-18T19:56:07;13.00;99.90
59146;DHT22;44928;53.074;6.646;2022-10-18T19:58:33;13.00;99.90
59146;DHT22;44928;53.074;6.646;2022-10-18T20:00:59;13.00;99.90
59146;DHT22;44928;53.074;6.646;2022-10-18T20:03:27;13.00;99.90
59146;DHT22;44928;53.074;6.646;2022-10-18T20:05:59;13.10;99.90
59146;DHT22;44928;53.074;6.646;2022-10-18T20:08:27;13.10;99.90
59146;DHT22;44928;53.074;6.646;2022-10-18T20:10:53;13.00;99.90
59146;DHT22;44928;53.074;6.646;2022-10-18T20:13:20;13.00;99.90
59146;DHT22;44928;53.074;6.646;2022-10-18T20:15:48;13.00;99.90
59146;DHT22;44928;53.074;6.646;2022-10-18T20:18:16;13.00;99.90
59146;DHT22;44928;53.074;6.646;2022-10-18T20:20:42;13.00;99.90
59146;DHT22;44928;53.074;6.646;2022-10-18T20:23:08;13.00;99.90
59146;DHT22;44928;53.074;6.646;2022-10-18T20:25:34;13.00;99.90
59146;DHT22;44928;53.074;6.646;2022-10-18T20:28:00;13.00;99.90
59146;DHT22;44928;53.074;6.646;2022-10-18T20:30:25;13.00;99.90
59146;DHT22;44928;53.074;6.646;2022-10-18T20:32:52;13.00;99.90
59146;DHT22;44928;53.074;6.646;2022-10-18T20:35:19;13.00;99.90
59146;DHT22;44928;53.074;6.646;2022-10-18T20:37:45;13.00;99.90
59146;DHT22;44928;53.074;6.646;2022-10-18T20:40:11;13.10;99.90
59146;DHT22;44928;53.074;6.646;2022-10-18T20:42:40;13.00;99.90
59146;DHT22;44928;53.074;6.646;2022-10-18T20:45:07;13.00;99.90
59146;DHT22;44928;53.074;6.646;2022-10-18T20:47:34;13.00;99.90
59146;DHT22;44928;53.074;6.646;2022-10-18T20:49:59;13.00;99.90
59146;DHT22;44928;53.074;6.646;2022-10-18T20:52:25;13.00;99.90
59146;DHT22;44928;53.074;6.646;2022-10-18T20:54:52;12.90;99.90
59146;DHT22;44928;53.074;6.646;2022-10-18T20:57:23;12.90;99.90
59146;DHT22;44928;53.074;6.646;2022-10-18T20:59:49;12.90;99.90
59146;DHT22;44928;53.074;6.646;2022-10-18T21:02:15;12.90;99.90
59146;DHT22;44928;53.074;6.646;2022-10-18T21:04:41;12.90;99.90
59146;DHT22;44928;53.074;6.646;2022-10-18T21:07:08;12.90;99.90
59146;DHT22;44928;53.074;6.646;2022-10-18T21:09:34;12.90;99.90
59146;DHT22;44928;53.074;6.646;2022-10-18T21:12:00;12.90;99.90
59146;DHT22;44928;53.074;6.646;2022-10-18T21:14:26;12.90;99.90
59146;DHT22;44928;53.074;6.646;2022-10-18T21:16:52;12.90;99.90
59146;DHT22;44928;53.074;6.646;2022-10-18T21:19:22;12.90;99.90
59146;DHT22;44928;53.074;6.646;2022-10-18T21:21:50;12.90;99.90
59146;DHT22;44928;53.074;6.646;2022-10-18T21:24:17;12.80;99.90
59146;DHT22;44928;53.074;6.646;2022-10-18T21:26:43;12.80;99.90
59146;DHT22;44928;53.074;6.646;2022-10-18T21:29:10;12.80;99.90
59146;DHT22;44928;53.074;6.646;2022-10-18T21:31:38;12.80;99.90
59146;DHT22;44928;53.074;6.646;2022-10-18T21:34:13;12.80;99.90
59146;DHT22;44928;53.074;6.646;2022-10-18T21:36:41;12.80;99.90
59146;DHT22;44928;53.074;6.646;2022-10-18T21:39:12;12.80;99.90
59146;DHT22;44928;53.074;6.646;2022-10-18T21:41:39;12.70;99.90
59146;DHT22;44928;53.074;6.646;2022-10-18T21:44:05;12.70;99.90
59146;DHT22;44928;53.074;6.646;2022-10-18T21:46:31;12.70;99.90
59146;DHT22;44928;53.074;6.646;2022-10-18T21:48:57;12.60;99.90
59146;DHT22;44928;53.074;6.646;2022-10-18T21:51:25;12.60;99.90
59146;DHT22;44928;53.074;6.646;2022-10-18T21:53:55;12.50;99.90
59146;DHT22;44928;53.074;6.646;2022-10-18T21:56:26;12.40;99.90
59146;DHT22;44928;53.074;6.646;2022-10-18T21:58:53;12.40;99.90
59146;DHT22;44928;53.074;6.646;2022-10-18T22:01:21;12.30;99.90
59146;DHT22;44928;53.074;6.646;2022-10-18T22:03:49;12.30;99.90
59146;DHT22;44928;53.074;6.646;2022-10-18T22:06:16;12.20;99.90
59146;DHT22;44928;53.074;6.646;2022-10-18T22:08:46;12.20;99.90
59146;DHT22;44928;53.074;6.646;2022-10-18T22:11:12;12.20;99.90
59146;DHT22;44928;53.074;6.646;2022-10-18T22:13:40;12.10;99.90
59146;DHT22;44928;53.074;6.646;2022-10-18T22:16:07;12.00;99.90
59146;DHT22;44928;53.074;6.646;2022-10-18T22:18:34;12.00;99.90
59146;DHT22;44928;53.074;6.646;2022-10-18T22:21:03;11.90;99.90
59146;DHT22;44928;53.074;6.646;2022-10-18T22:23:34;11.90;99.90
59146;DHT22;44928;53.074;6.646;2022-10-18T22:26:05;11.80;99.90
59146;DHT22;44928;53.074;6.646;2022-10-18T22:28:33;11.80;99.90
59146;DHT22;44928;53.074;6.646;2022-10-18T22:30:59;11.80;99.90
59146;DHT22;44928;53.074;6.646;2022-10-18T22:33:25;11.70;99.90
59146;DHT22;44928;53.074;6.646;2022-10-18T22:35:51;11.70;99.90
59146;DHT22;44928;53.074;6.646;2022-10-18T22:38:16;11.60;99.90
59146;DHT22;44928;53.074;6.646;2022-10-18T22:40:42;11.60;99.90
59146;DHT22;44928;53.074;6.646;2022-10-18T22:43:08;11.60;99.90
59146;DHT22;44928;53.074;6.646;2022-10-18T22:45:34;11.60;99.90
59146;DHT22;44928;53.074;6.646;2022-10-18T22:48:00;11.50;99.90
59146;DHT22;44928;53.074;6.646;2022-10-18T22:50:25;11.50;99.90
59146;DHT22;44928;53.074;6.646;2022-10-18T22:52:51;11.50;99.90
59146;DHT22;44928;53.074;6.646;2022-10-18T22:55:17;11.50;99.90
59146;DHT22;44928;53.074;6.646;2022-10-18T22:57:43;11.50;99.90
59146;DHT22;44928;53.074;6.646;2022-10-18T23:00:10;11.40;99.90
59146;DHT22;44928;53.074;6.646;2022-10-18T23:02:36;11.40;99.90
59146;DHT22;44928;53.074;6.646;2022-10-18T23:05:02;11.40;99.90
59146;DHT22;44928;53.074;6.646;2022-10-18T23:07:27;11.30;99.90
59146;DHT22;44928;53.074;6.646;2022-10-18T23:09:53;11.30;99.90
59146;DHT22;44928;53.074;6.646;2022-10-18T23:12:19;11.20;99.90
59146;DHT22;44928;53.074;6.646;2022-10-18T23:14:45;11.20;99.90
59146;DHT22;44928;53.074;6.646;2022-10-18T23:17:10;11.20;99.90
59146;DHT22;44928;53.074;6.646;2022-10-18T23:19:36;11.10;99.90
59146;DHT22;44928;53.074;6.646;2022-10-18T23:22:02;11.00;99.90
59146;DHT22;44928;53.074;6.646;2022-10-18T23:24:28;11.00;99.90
59146;DHT22;44928;53.074;6.646;2022-10-18T23:26:53;10.90;99.90
59146;DHT22;44928;53.074;6.646;2022-10-18T23:29:19;11.00;99.90
59146;DHT22;44928;53.074;6.646;2022-10-18T23:31:45;11.00;99.90
59146;DHT22;44928;53.074;6.646;2022-10-18T23:34:11;11.00;99.90
59146;DHT22;44928;53.074;6.646;2022-10-18T23:36:36;11.00;99.90
59146;DHT22;44928;53.074;6.646;2022-10-18T23:39:02;11.00;99.90
59146;DHT22;44928;53.074;6.646;2022-10-18T23:41:28;11.00;99.90
59146;DHT22;44928;53.074;6.646;2022-10-18T23:43:54;10.90;99.90
59146;DHT22;44928;53.074;6.646;2022-10-18T23:46:20;10.90;99.90
59146;DHT22;44928;53.074;6.646;2022-10-18T23:48:47;10.90;99.90
59146;DHT22;44928;53.074;6.646;2022-10-18T23:51:13;10.90;99.90
59146;DHT22;44928;53.074;6.646;2022-10-18T23:53:40;10.80;99.90
59146;DHT22;44928;53.074;6.646;2022-10-18T23:56:14;10.80;99.90
59146;DHT22;44928;53.074;6.646;2022-10-18T23:58:41;10.80;99.90
